createdAt,value
2018-09-23T00:01:34.294Z,99136.26
2018-09-23T00:04:04.858Z,99144.85
2018-09-23T00:06:35.403Z,99142.16
2018-09-23T00:09:07.767Z,99144.66
2018-09-23T00:11:38.227Z,99151.72
2018-09-23T00:14:10.313Z,99155.35
2018-09-23T00:16:41.473Z,99152.52
2018-09-23T00:19:12.187Z,99155.13
2018-09-23T00:22:19.954Z,99157.59
2018-09-23T00:24:50.537Z,99155.55
2018-09-23T00:27:21.144Z,99156.83
2018-09-23T00:29:52.679Z,99153.73
2018-09-23T00:32:24.924Z,99147.26
2018-09-23T00:34:55.289Z,99142.05
2018-09-23T00:37:25.641Z,99145.17
2018-09-23T00:39:56.548Z,99135.11
2018-09-23T00:42:27.007Z,99136.59
2018-09-23T00:44:57.572Z,99133.63
2018-09-23T00:47:28.097Z,99135.47
2018-09-23T00:49:58.706Z,99138.60
2018-09-23T00:52:29.360Z,99138.12
2018-09-23T00:54:59.774Z,99141.13
2018-09-23T00:57:30.370Z,99134.59
2018-09-23T01:00:00.918Z,99126.48
2018-09-23T01:02:31.438Z,99128.09
2018-09-23T01:05:01.777Z,99129.41
2018-09-23T01:07:32.108Z,99122.39
2018-09-23T01:10:02.574Z,99121.63
2018-09-23T01:12:33.160Z,99126.09
2018-09-23T01:15:03.646Z,99124.83
2018-09-23T01:17:34.131Z,99120.45
2018-09-23T01:20:04.699Z,99119.00
2018-09-23T01:22:35.366Z,99119.73
2018-09-23T01:25:06.133Z,99117.25
2018-09-23T01:27:36.411Z,99111.20
2018-09-23T01:30:07.313Z,99113.94
2018-09-23T01:32:37.820Z,99118.02
2018-09-23T01:35:08.335Z,99124.16
2018-09-23T01:37:38.810Z,99117.98
2018-09-23T01:40:09.361Z,99123.65
2018-09-23T01:42:40.163Z,99123.12
2018-09-23T01:45:10.640Z,99120.69
2018-09-23T01:47:41.084Z,99120.42
2018-09-23T01:50:11.594Z,99128.23
2018-09-23T01:52:42.030Z,99120.36
2018-09-23T01:55:12.411Z,99116.72
2018-09-23T01:57:42.766Z,99117.08
2018-09-23T02:00:13.312Z,99115.34
2018-09-23T02:02:43.688Z,99114.30
2018-09-23T02:05:14.264Z,99110.41
2018-09-23T02:07:44.816Z,99111.17
2018-09-23T02:10:15.534Z,99115.44
2018-09-23T02:12:45.954Z,99121.17
2018-09-23T02:15:16.688Z,99121.21
2018-09-23T02:17:47.061Z,99119.15
2018-09-23T02:20:17.565Z,99117.34
2018-09-23T02:22:48.034Z,99122.30
2018-09-23T02:25:18.438Z,99120.62
2018-09-23T02:27:48.905Z,99128.61
2018-09-23T02:30:19.340Z,99126.86
2018-09-23T02:32:50.843Z,99130.46
2018-09-23T02:35:22.760Z,99132.88
2018-09-23T02:37:55.475Z,99136.38
2018-09-23T02:40:26.031Z,99137.86
2018-09-23T02:42:56.469Z,99140.34
2018-09-23T02:45:27.071Z,99138.36
2018-09-23T02:47:57.336Z,99136.28
2018-09-23T02:50:27.771Z,99137.68
2018-09-23T02:52:58.250Z,99138.53
2018-09-23T02:55:28.699Z,99139.00
2018-09-23T02:57:59.256Z,99146.48
2018-09-23T03:00:29.723Z,99148.58
2018-09-23T03:03:00.243Z,99153.34
2018-09-23T03:05:30.709Z,99150.64
2018-09-23T03:08:01.181Z,99151.88
2018-09-23T03:10:31.852Z,99151.55
2018-09-23T03:13:02.227Z,99145.36
2018-09-23T03:15:32.661Z,99137.92
2018-09-23T03:18:03.197Z,99135.76
2018-09-23T03:20:33.778Z,99133.34
2018-09-23T03:23:04.327Z,99130.28
2018-09-23T03:25:34.727Z,99127.98
2018-09-23T03:28:05.229Z,99126.77
2018-09-23T03:30:35.742Z,99131.13
2018-09-23T03:33:06.203Z,99122.98
2018-09-23T03:35:36.662Z,99125.39
2018-09-23T03:38:07.302Z,99122.53
2018-09-23T03:40:37.967Z,99118.15
2018-09-23T03:43:09.477Z,99128.72
2018-09-23T03:45:40.104Z,99128.33
2018-09-23T03:48:10.502Z,99128.39
2018-09-23T03:50:41.120Z,99126.06
2018-09-23T03:53:11.578Z,99124.12
2018-09-23T03:55:42.017Z,99126.66
2018-09-23T03:58:12.522Z,99129.66
2018-09-23T04:00:43.031Z,99121.53
2018-09-23T04:03:26.630Z,99122.42
2018-09-23T04:05:57.581Z,99120.27
2018-09-23T04:08:28.013Z,99117.63
2018-09-23T04:10:58.318Z,99116.61
2018-09-23T04:13:29.831Z,99114.66
2018-09-23T04:16:00.226Z,99122.59
2018-09-23T04:18:30.799Z,99125.80
2018-09-23T04:21:01.141Z,99126.14
2018-09-23T04:23:31.547Z,99126.80
2018-09-23T04:26:01.904Z,99132.63
2018-09-23T04:28:32.470Z,99133.41
2018-09-23T04:31:02.804Z,99130.99
2018-09-23T04:33:33.282Z,99133.90
2018-09-23T04:36:03.736Z,99138.06
2018-09-23T04:38:34.084Z,99143.84
2018-09-23T04:41:04.658Z,99149.53
2018-09-23T04:43:35.079Z,99148.69
2018-09-23T04:46:05.510Z,99142.30
2018-09-23T04:48:35.859Z,99145.89
2018-09-23T04:51:06.582Z,99153.52
2018-09-23T04:53:36.857Z,99148.17
2018-09-23T04:56:07.653Z,99148.53
2018-09-23T04:58:38.886Z,99153.56
2018-09-23T05:01:09.759Z,99154.25
2018-09-23T05:03:40.310Z,99155.21
2018-09-23T05:06:11.960Z,99148.66
2018-09-23T05:08:42.507Z,99155.53
2018-09-23T05:11:12.950Z,99152.34
2018-09-23T05:13:43.555Z,99167.04
2018-09-23T05:16:14.040Z,99159.53
2018-09-23T05:18:44.654Z,99163.45
2018-09-23T05:21:15.042Z,99157.57
2018-09-23T05:23:45.539Z,99153.76
2018-09-23T05:26:15.920Z,99156.84
2018-09-23T05:28:46.420Z,99156.63
2018-09-23T05:31:16.986Z,99163.30
2018-09-23T05:33:47.431Z,99160.45
2018-09-23T05:36:17.974Z,99159.46
2018-09-23T05:38:48.293Z,99170.15
2018-09-23T05:41:18.790Z,99169.69
2018-09-23T05:43:49.298Z,99177.05
2018-09-23T05:46:19.833Z,99171.13
2018-09-23T05:48:50.382Z,99171.28
2018-09-23T05:51:20.812Z,99170.75
2018-09-23T05:53:51.153Z,99180.51
2018-09-23T05:56:21.651Z,99176.85
2018-09-23T05:58:52.168Z,99178.05
2018-09-23T06:01:22.685Z,99175.94
2018-09-23T06:03:53.117Z,99179.49
2018-09-23T06:06:23.638Z,99180.64
2018-09-23T06:08:54.128Z,99183.79
2018-09-23T06:11:24.609Z,99189.49
2018-09-23T06:13:55.132Z,99191.02
2018-09-23T06:16:25.934Z,99197.05
2018-09-23T06:18:56.619Z,99196.98
2018-09-23T06:21:27.134Z,99189.06
2018-09-23T06:24:45.209Z,99183.55
2018-09-23T06:27:16.008Z,99179.45
2018-09-23T06:29:46.788Z,99186.73
2018-09-23T06:32:17.521Z,99192.95
2018-09-23T06:34:48.330Z,99195.20
2018-09-23T06:37:19.093Z,99193.86
2018-09-23T06:39:50.318Z,99198.36
2018-09-23T06:42:21.353Z,99197.05
2018-09-23T06:44:52.295Z,99196.61
2018-09-23T06:47:23.299Z,99194.06
2018-09-23T06:50:06.785Z,99197.19
2018-09-23T06:52:37.412Z,99205.03
2018-09-23T06:55:08.898Z,99204.41
2018-09-23T06:57:40.019Z,99199.56
2018-09-23T07:00:11.124Z,99205.70
2018-09-23T07:02:41.774Z,99210.73
2018-09-23T07:05:15.089Z,99205.14
2018-09-23T07:07:45.895Z,99207.78
2018-09-23T07:10:16.605Z,99215.99
2018-09-23T07:12:47.172Z,99207.97
2018-09-23T07:15:17.789Z,99215.39
2018-09-23T07:17:48.742Z,99215.15
2018-09-23T07:20:20.391Z,99219.14
2018-09-23T07:22:51.273Z,99215.39
2018-09-23T07:25:22.296Z,99219.36
2018-09-23T07:27:52.990Z,99223.20
2018-09-23T07:30:23.529Z,99223.25
2018-09-23T07:32:54.941Z,99221.67
2018-09-23T07:35:25.762Z,99228.34
2018-09-23T07:37:56.619Z,99229.19
2018-09-23T07:40:27.948Z,99228.56
2018-09-23T07:42:58.873Z,99226.69
2018-09-23T07:45:29.691Z,99229.00
2018-09-23T07:48:00.279Z,99231.36
2018-09-23T07:50:30.898Z,99232.09
2018-09-23T07:53:01.667Z,99238.00
2018-09-23T07:55:32.449Z,99243.73
2018-09-23T07:58:04.214Z,99239.55
2018-09-23T08:00:34.940Z,99244.80
2018-09-23T08:03:05.591Z,99238.97
2018-09-23T08:05:36.412Z,99250.47
2018-09-23T08:08:07.943Z,99247.78
2018-09-23T08:10:38.803Z,99261.34
2018-09-23T08:13:09.648Z,99254.00
2018-09-23T08:15:40.463Z,99251.36
2018-09-23T08:18:11.219Z,99254.67
2018-09-23T08:20:42.222Z,99259.27
2018-09-23T08:23:13.009Z,99260.53
2018-09-23T08:25:43.790Z,99266.48
2018-09-23T08:28:14.353Z,99257.88
2018-09-23T08:30:45.812Z,99260.43
2018-09-23T08:33:17.192Z,99265.27
2018-09-23T08:35:47.894Z,99260.00
2018-09-23T08:38:18.634Z,99265.27
2018-09-23T08:40:49.904Z,99260.56
2018-09-23T08:43:20.829Z,99260.09
2018-09-23T08:45:52.187Z,99255.94
2018-09-23T08:48:22.899Z,99255.29
2018-09-23T08:50:54.011Z,99252.35
2018-09-23T08:53:25.127Z,99259.56
2018-09-23T08:55:55.814Z,99255.52
2018-09-23T08:58:26.418Z,99253.81
2018-09-23T09:00:57.311Z,99256.76
2018-09-23T09:03:27.962Z,99255.08
2018-09-23T09:05:58.777Z,99255.38
2018-09-23T09:08:29.481Z,99252.83
2018-09-23T09:11:00.231Z,99256.47
2018-09-23T09:13:30.927Z,99259.13
2018-09-23T09:16:01.830Z,99253.81
2018-09-23T09:18:32.582Z,99261.04
2018-09-23T09:21:03.559Z,99265.11
2018-09-23T09:23:34.111Z,99270.39
2018-09-23T09:26:04.748Z,99267.19
2018-09-23T09:28:36.091Z,99264.63
2018-09-23T09:31:07.075Z,99261.36
2018-09-23T09:33:37.984Z,99256.38
2018-09-23T09:36:09.379Z,99261.28
2018-09-23T09:38:40.274Z,99252.39
2018-09-23T09:41:11.133Z,99259.13
2018-09-23T09:43:42.271Z,99256.06
2018-09-23T09:46:14.178Z,99258.11
2018-09-23T09:48:45.154Z,99257.73
2018-09-23T09:51:16.443Z,99265.71
2018-09-23T09:53:47.607Z,99258.38
2018-09-23T09:56:18.283Z,99262.99
2018-09-23T09:58:49.175Z,99267.58
2018-09-23T10:01:20.050Z,99260.63
2018-09-23T10:03:50.945Z,99257.23
2018-09-23T10:06:21.874Z,99250.72
2018-09-23T10:08:53.493Z,99254.57
2018-09-23T10:11:24.112Z,99251.02
2018-09-23T10:13:54.681Z,99254.02
2018-09-23T10:16:25.264Z,99256.63
2018-09-23T10:18:56.104Z,99255.98
2018-09-23T10:21:26.703Z,99253.66
2018-09-23T10:23:59.925Z,99253.73
2018-09-23T10:26:31.263Z,99251.05
2018-09-23T10:29:02.521Z,99243.44
2018-09-23T10:31:33.149Z,99243.32
2018-09-23T10:34:04.867Z,99246.69
2018-09-23T10:36:35.995Z,99242.34
2018-09-23T10:39:10.536Z,99238.52
2018-09-23T10:41:42.253Z,99243.84
2018-09-23T10:44:13.833Z,99236.20
2018-09-23T10:46:44.689Z,99230.04
2018-09-23T10:49:15.982Z,99236.54
2018-09-23T10:51:47.590Z,99229.73
2018-09-23T10:54:19.170Z,99235.88
2018-09-23T10:56:50.609Z,99229.73
2018-09-23T10:59:21.546Z,99226.67
2018-09-23T11:01:52.414Z,99219.42
2018-09-23T11:04:23.204Z,99229.52
2018-09-23T11:06:53.853Z,99210.78
2018-09-23T11:09:26.344Z,99215.04
2018-09-23T11:11:56.941Z,99213.27
2018-09-23T11:14:27.707Z,99217.86
2018-09-23T11:16:58.411Z,99201.19
2018-09-23T11:19:29.334Z,99202.13
2018-09-23T11:22:00.265Z,99196.16
2018-09-23T11:24:30.826Z,99215.50
2018-09-23T11:27:01.424Z,99205.88
2018-09-23T11:29:32.747Z,99206.83
2018-09-23T11:32:03.457Z,99204.02
2018-09-23T11:34:34.058Z,99196.44
2018-09-23T11:37:06.574Z,99202.98
2018-09-23T11:39:39.382Z,99190.98
2018-09-23T11:42:11.074Z,99196.06
2018-09-23T11:44:42.908Z,99191.61
2018-09-23T11:47:15.208Z,99182.38
2018-09-23T11:49:46.787Z,99182.15
2018-09-23T11:52:20.096Z,99173.37
2018-09-23T11:54:52.230Z,99168.63
2018-09-23T11:57:23.862Z,99180.14
2018-09-23T11:59:56.495Z,99178.14
2018-09-23T12:02:28.236Z,99163.94
2018-09-23T12:05:00.949Z,99169.52
2018-09-23T12:07:32.902Z,99160.73
2018-09-23T12:10:04.585Z,99159.20
2018-09-23T12:12:36.414Z,99149.64
2018-09-23T12:15:09.005Z,99158.14
2018-09-23T12:17:40.669Z,99146.44
2018-09-23T12:20:12.332Z,99148.75
2018-09-23T12:22:43.977Z,99160.13
2018-09-23T12:25:18.060Z,99143.41
2018-09-23T12:27:49.690Z,99143.81
2018-09-23T12:30:21.277Z,99135.75
2018-09-23T12:32:52.909Z,99133.59
2018-09-23T12:35:24.603Z,99139.42
2018-09-23T12:37:56.426Z,99130.45
2018-09-23T12:40:28.345Z,99118.14
2018-09-23T12:43:00.403Z,99122.59
2018-09-23T12:45:32.536Z,99104.09
2018-09-23T12:48:04.139Z,99115.86
2018-09-23T12:50:35.995Z,99103.30
2018-09-23T12:53:07.803Z,99111.02
2018-09-23T12:55:40.793Z,99112.23
2018-09-23T12:58:12.205Z,99107.22
2018-09-23T13:00:43.792Z,99103.77
2018-09-23T13:03:15.629Z,99098.22
2018-09-23T13:05:47.272Z,99105.38
2018-09-23T13:08:18.952Z,99104.69
2018-09-23T13:10:50.835Z,99098.95
2018-09-23T13:13:22.627Z,99090.09
2018-09-23T13:15:54.654Z,99082.88
2018-09-23T13:18:26.844Z,99082.12
2018-09-23T13:20:59.156Z,99077.33
2018-09-23T13:23:30.867Z,99072.25
2018-09-23T13:26:02.343Z,99069.47
2018-09-23T13:28:33.909Z,99072.83
2018-09-23T13:31:06.157Z,99060.33
2018-09-23T13:33:37.941Z,99063.34
2018-09-23T13:36:10.110Z,99061.41
2018-09-23T13:38:41.740Z,99058.39
2018-09-23T13:41:13.222Z,99063.53
2018-09-23T13:43:44.659Z,99069.67
2018-09-23T13:46:16.852Z,99050.12
2018-09-23T13:48:49.088Z,99054.53
2018-09-23T13:51:20.581Z,99046.38
2018-09-23T13:53:52.154Z,99064.51
2018-09-23T13:56:23.554Z,99049.98
2018-09-23T13:58:55.033Z,99065.75
2018-09-23T14:01:26.865Z,99052.39
2018-09-23T14:03:58.968Z,99042.09
2018-09-23T14:06:31.031Z,99053.66
2018-09-23T14:09:02.474Z,99061.94
2018-09-23T14:11:34.633Z,99044.80
2018-09-23T14:14:06.765Z,99051.88
2018-09-23T14:16:38.357Z,99035.01
2018-09-23T14:19:10.641Z,99043.69
2018-09-23T14:21:42.706Z,99044.69
2018-09-23T14:24:14.535Z,99049.94
2018-09-23T14:26:45.359Z,99048.64
2018-09-23T14:29:16.020Z,99047.16
2018-09-23T14:31:46.770Z,99034.70
2018-09-23T14:34:17.369Z,99038.44
2018-09-23T14:36:57.059Z,99030.42
2018-09-23T14:39:27.851Z,99039.11
2018-09-23T14:41:58.430Z,99032.50
2018-09-23T14:44:32.348Z,99028.46
2018-09-23T14:47:03.459Z,99023.33
2018-09-23T14:49:34.204Z,99017.42
2018-09-23T14:52:04.637Z,99026.22
2018-09-23T14:54:35.323Z,99016.08
2018-09-23T14:57:06.693Z,99020.76
2018-09-23T14:59:38.614Z,99014.83
2018-09-23T15:02:09.913Z,99019.23
2018-09-23T15:04:41.939Z,99022.77
2018-09-23T15:07:13.978Z,99017.40
2018-09-23T15:09:45.761Z,99013.16
2018-09-23T15:12:16.813Z,99017.22
2018-09-23T15:14:48.428Z,99015.27
2018-09-23T15:17:19.861Z,99021.29
2018-09-23T15:19:52.390Z,99012.67
2018-09-23T15:22:24.481Z,99009.97
2018-09-23T15:24:55.922Z,99009.94
2018-09-23T15:27:27.435Z,99014.19
2018-09-23T15:29:59.056Z,99009.27
2018-09-23T15:32:30.627Z,99000.24
2018-09-23T15:35:02.566Z,99001.97
2018-09-23T15:37:34.033Z,98999.98
2018-09-23T15:40:05.757Z,98996.47
2018-09-23T15:42:37.151Z,98999.46
2018-09-23T15:45:08.919Z,98993.47
2018-09-23T15:47:40.702Z,98999.52
2018-09-23T15:50:12.295Z,99000.35
2018-09-23T15:52:44.820Z,98998.41
2018-09-23T15:55:16.913Z,99011.61
2018-09-23T15:57:48.301Z,98995.92
2018-09-23T16:00:20.113Z,98998.40
2018-09-23T16:02:51.843Z,98994.58
2018-09-23T16:05:25.240Z,99000.27
2018-09-23T16:07:56.917Z,98994.80
2018-09-23T16:10:28.761Z,98992.87
2018-09-23T16:13:01.814Z,98994.41
2018-09-23T16:15:34.293Z,98988.83
2018-09-23T16:18:05.946Z,98999.36
2018-09-23T16:20:37.753Z,98990.07
2018-09-23T16:23:11.293Z,98994.47
2018-09-23T16:25:44.206Z,98992.75
2018-09-23T16:28:16.000Z,98992.75
2018-09-23T16:30:47.789Z,98991.32
2018-09-23T16:33:19.787Z,98989.20
2018-09-23T16:35:51.696Z,99001.20
2018-09-23T16:38:23.315Z,98983.98
2018-09-23T16:40:55.248Z,98983.81
2018-09-23T16:43:29.298Z,98978.63
2018-09-23T16:46:01.262Z,98974.98
2018-09-23T16:48:33.231Z,98979.34
2018-09-23T16:51:05.116Z,98975.86
2018-09-23T16:53:37.164Z,98977.34
2018-09-23T16:56:10.233Z,98981.03
2018-09-23T16:58:42.918Z,98977.67
2018-09-23T17:01:20.112Z,98979.23
2018-09-23T17:03:52.099Z,98978.46
2018-09-23T17:06:24.422Z,98970.55
2018-09-23T17:08:56.201Z,98976.42
2018-09-23T17:11:28.142Z,98970.23
2018-09-23T17:14:00.230Z,98969.15
2018-09-23T17:16:33.918Z,98964.73
2018-09-23T17:19:05.825Z,98966.69
2018-09-23T17:21:40.630Z,98963.13
2018-09-23T17:24:12.970Z,98961.41
2018-09-23T17:26:45.908Z,98955.64
2018-09-23T17:29:17.949Z,98961.58
2018-09-23T17:31:51.047Z,98965.53
2018-09-23T17:34:22.770Z,98960.84
2018-09-23T17:36:55.512Z,98964.14
2018-09-23T17:39:27.135Z,98966.06
2018-09-23T17:42:01.915Z,98966.98
2018-09-23T17:44:34.360Z,98974.03
2018-09-23T17:47:06.503Z,98980.63
2018-09-23T17:49:38.374Z,98989.14
2018-09-23T17:52:10.436Z,98988.69
2018-09-23T17:54:42.280Z,98984.08
2018-09-23T17:57:14.447Z,98989.13
2018-09-23T17:59:46.629Z,98984.11
2018-09-23T18:02:19.484Z,98990.56
2018-09-23T18:04:52.032Z,98994.47
2018-09-23T18:07:23.952Z,98996.97
2018-09-23T18:09:55.901Z,98997.30
2018-09-23T18:12:28.239Z,98993.67
2018-09-23T18:14:59.858Z,98991.84
2018-09-23T18:17:31.797Z,98992.88
2018-09-23T18:20:03.798Z,99001.73
2018-09-23T18:22:35.670Z,99012.09
2018-09-23T18:25:07.566Z,99013.06
2018-09-23T18:27:39.488Z,99016.31
2018-09-23T18:30:12.134Z,99022.16
2018-09-23T18:32:44.652Z,99025.99
2018-09-23T18:35:16.812Z,99019.48
2018-09-23T18:37:48.591Z,99018.48
2018-09-23T18:40:21.758Z,99030.93
2018-09-23T18:42:53.727Z,99026.81
2018-09-23T18:45:26.061Z,99032.42
2018-09-23T18:47:58.356Z,99028.14
2018-09-23T18:50:30.438Z,99029.31
2018-09-23T18:53:07.469Z,99028.00
2018-09-23T18:55:40.592Z,99038.80
2018-09-23T18:58:12.938Z,99044.00
2018-09-23T19:00:45.750Z,99036.70
2018-09-23T19:03:18.614Z,99031.89
2018-09-23T19:05:50.860Z,99036.86
2018-09-23T19:08:22.622Z,99036.69
2018-09-23T19:10:54.571Z,99029.58
2018-09-23T19:13:31.730Z,99029.75
2018-09-23T19:16:08.808Z,99031.55
2018-09-23T19:18:40.865Z,99026.58
2018-09-23T19:21:14.642Z,99034.25
2018-09-23T19:23:48.465Z,99035.23
2018-09-23T19:26:21.494Z,99028.28
2018-09-23T19:28:54.032Z,99032.11
2018-09-23T19:31:26.131Z,99030.95
2018-09-23T19:33:57.747Z,99025.81
2018-09-23T19:36:29.692Z,99026.66
2018-09-23T19:39:02.089Z,99026.83
2018-09-23T19:41:34.661Z,99024.98
2018-09-23T19:44:06.961Z,99020.86
2018-09-23T19:46:39.437Z,99024.67
2018-09-23T19:49:11.401Z,99018.69
2018-09-23T19:51:44.374Z,99019.36
2018-09-23T19:54:16.361Z,99008.08
2018-09-23T19:56:49.464Z,99004.41
2018-09-23T19:59:21.135Z,99002.77
2018-09-23T20:01:53.411Z,99002.77
2018-09-23T20:04:25.742Z,98999.77
2018-09-23T20:07:13.283Z,99003.76
2018-09-23T20:09:45.093Z,99008.90
2018-09-23T20:12:17.510Z,99008.23
2018-09-23T20:14:48.846Z,99009.07
2018-09-23T20:17:20.178Z,99005.09
2018-09-23T20:19:51.234Z,99008.38
2018-09-23T20:22:23.770Z,98995.27
2018-09-23T20:24:54.995Z,98992.09
2018-09-23T20:27:26.453Z,98981.30
2018-09-23T20:29:57.470Z,98984.31
2018-09-23T20:32:28.162Z,98991.44
2018-09-23T20:34:58.913Z,98988.12
2018-09-23T20:37:29.751Z,98995.77
2018-09-23T20:40:00.398Z,98991.75
2018-09-23T20:42:31.338Z,98984.80
2018-09-23T20:45:02.957Z,98985.45
2018-09-23T20:47:33.992Z,98969.22
2018-09-23T20:50:05.513Z,98969.88
2018-09-23T20:52:36.567Z,98967.55
2018-09-23T20:55:08.617Z,98975.02
2018-09-23T20:57:39.330Z,98970.69
2018-09-23T21:00:10.984Z,98972.67
2018-09-23T21:02:41.951Z,98961.26
2018-09-23T21:05:13.064Z,98960.25
2018-09-23T21:07:44.516Z,98957.25
2018-09-23T21:10:15.441Z,98955.60
2018-09-23T21:12:46.990Z,98961.22
2018-09-23T21:15:18.749Z,98947.95
2018-09-23T21:17:50.542Z,98956.09
2018-09-23T21:20:21.652Z,98950.30
2018-09-23T21:22:52.534Z,98959.41
2018-09-23T21:25:23.307Z,98950.95
2018-09-23T21:27:54.334Z,98955.25
2018-09-23T21:30:25.043Z,98951.45
2018-09-23T21:32:56.293Z,98955.11
2018-09-23T21:35:27.372Z,98955.28
2018-09-23T21:37:58.449Z,98951.96
2018-09-23T21:40:29.506Z,98941.00
2018-09-23T21:43:00.120Z,98946.97
2018-09-23T21:45:30.816Z,98944.31
2018-09-23T21:48:01.501Z,98946.14
2018-09-23T21:50:31.871Z,98946.63
2018-09-23T21:53:02.913Z,98943.66
2018-09-23T21:55:34.189Z,98945.83
2018-09-23T21:58:04.691Z,98954.94
2018-09-23T22:00:40.314Z,98950.95
2018-09-23T22:03:11.712Z,98953.12
2018-09-23T22:05:43.334Z,98946.65
2018-09-23T22:08:15.068Z,98943.83
2018-09-23T22:10:45.614Z,98932.38
2018-09-23T22:13:16.163Z,98932.06
2018-09-23T22:15:46.831Z,98924.42
2018-09-23T22:18:19.341Z,98927.08
2018-09-23T22:20:49.823Z,98922.43
2018-09-23T22:23:20.366Z,98923.58
2018-09-23T22:25:51.011Z,98910.80
2018-09-23T22:28:21.595Z,98901.34
2018-09-23T22:30:52.102Z,98904.95
2018-09-23T22:33:22.612Z,98897.34
2018-09-23T22:35:53.165Z,98890.91
2018-09-23T22:38:23.691Z,98888.39
2018-09-23T22:40:54.501Z,98891.08
2018-09-23T22:43:25.108Z,98889.90
2018-09-23T22:45:55.784Z,98883.79
2018-09-23T22:48:26.604Z,98887.10
2018-09-23T22:50:57.015Z,98884.94
2018-09-23T22:53:27.433Z,98875.31
2018-09-23T22:55:57.955Z,98866.20
2018-09-23T22:58:28.349Z,98864.05
2018-09-23T23:00:58.730Z,98863.04
2018-09-23T23:03:29.231Z,98855.44
2018-09-23T23:06:00.561Z,98850.63
2018-09-23T23:08:30.968Z,98852.09
2018-09-23T23:11:01.525Z,98850.11
2018-09-23T23:13:32.211Z,98856.42
2018-09-23T23:16:02.729Z,98842.81
2018-09-23T23:18:33.521Z,98845.47
2018-09-23T23:21:03.961Z,98839.67
2018-09-23T23:23:34.598Z,98841.48
2018-09-23T23:26:05.064Z,98836.36
2018-09-23T23:28:35.438Z,98837.51
2018-09-23T23:31:05.940Z,98840.17
2018-09-23T23:33:37.236Z,98849.45
2018-09-23T23:36:07.821Z,98847.14
2018-09-23T23:38:38.376Z,98837.97
2018-09-23T23:41:08.789Z,98826.03
2018-09-23T23:43:39.261Z,98811.82
2018-09-23T23:46:09.804Z,98821.45
2018-09-23T23:48:40.308Z,98813.14
2018-09-23T23:51:10.785Z,98815.97
2018-09-23T23:53:41.301Z,98810.34
2018-09-23T23:56:11.864Z,98808.80
2018-09-23T23:58:42.246Z,98795.36
